Terminal Aerodrome Forecast
Issued by NWS

Home | Current Version | Previous Version | Text Only | Print | Product List | Glossary On
Versions: 1 2 3 4 5 6 7 8 9 10 11 12 13 14
646
FTUS45 KABQ 231737
TAFSAF
TAF
KSAF 231737Z 2318/2418 VRB06KT P6SM FEW150
     FM232000 25011KT P6SM SCT100
      TEMPO 2323/2402 25012G18KT SCT100 BKN150
     FM240400 32007KT P6SM FEW110 SCT200
     FM241000 01008KT P6SM FEW150=

USA.gov is the U.S. government's official web portal to all federal, state and local government web resources and services.